Terminal Aerodrome Forecast
Issued by NWS

Home | Current Version | Previous Version | Text Only | Print | Product List | Glossary On
Versions: 1 2 3 4 5 6 7 8 9 10 11 12 13
415
FTUS46 KEKA 150542
TAFUKI
TAF
KUKI 150542Z 1506/1606 00000KT P6SM SKC
     FM151500 VRB03KT 3SM HZ FEW250
     FM151800 31007KT P6SM SCT250=

USA.gov is the U.S. government's official web portal to all federal, state and local government web resources and services.